createdAt,value
2019-06-20T00:01:13.095Z,99.90
2019-06-20T00:03:58.084Z,99.90
2019-06-20T00:06:43.096Z,99.90
2019-06-20T00:09:27.921Z,99.90
2019-06-20T00:12:12.693Z,99.90
2019-06-20T00:14:57.422Z,99.90
2019-06-20T00:17:42.619Z,99.90
2019-06-20T00:20:27.925Z,99.90
2019-06-20T00:23:12.702Z,99.90
2019-06-20T00:25:57.527Z,99.90
2019-06-20T00:28:42.448Z,99.90
2019-06-20T00:31:27.214Z,99.90
2019-06-20T00:34:11.839Z,99.90
2019-06-20T00:36:56.653Z,99.90
2019-06-20T00:39:41.461Z,99.90
2019-06-20T00:42:26.635Z,99.90
2019-06-20T00:45:12.205Z,99.90
2019-06-20T00:47:57.898Z,99.90
2019-06-20T00:50:43.232Z,99.90
2019-06-20T00:53:28.440Z,99.90
2019-06-20T00:56:13.413Z,99.90
2019-06-20T00:58:58.263Z,99.90
2019-06-20T01:01:43.358Z,99.90
2019-06-20T01:04:27.958Z,99.90
2019-06-20T01:07:12.899Z,99.90
2019-06-20T01:09:58.123Z,99.90
2019-06-20T01:12:42.940Z,99.90
2019-06-20T01:15:27.849Z,99.90
2019-06-20T01:18:13.197Z,99.90
2019-06-20T01:20:58.634Z,99.90
2019-06-20T01:23:44.180Z,99.90
2019-06-20T01:26:29.360Z,99.90
2019-06-20T01:29:14.396Z,99.90
2019-06-20T01:31:59.608Z,99.90
2019-06-20T01:34:44.565Z,99.90
2019-06-20T01:37:29.324Z,99.90
2019-06-20T01:40:14.479Z,99.90
2019-06-20T01:43:00.342Z,99.90
2019-06-20T01:45:46.336Z,99.90
2019-06-20T01:48:30.999Z,99.90
2019-06-20T01:51:17.409Z,99.90
2019-06-20T01:54:03.153Z,99.90
2019-06-20T01:56:48.114Z,99.90
2019-06-20T01:59:33.028Z,99.90
2019-06-20T02:02:18.000Z,99.90
2019-06-20T02:05:06.949Z,99.90
2019-06-20T02:07:51.887Z,99.90
2019-06-20T02:10:36.749Z,99.90
2019-06-20T02:13:21.721Z,99.90
2019-06-20T02:16:06.664Z,99.90
2019-06-20T02:18:51.304Z,99.90
2019-06-20T02:21:36.083Z,99.90
2019-06-20T02:24:21.667Z,99.90
2019-06-20T02:27:06.683Z,99.90
2019-06-20T02:29:51.709Z,99.90
2019-06-20T02:32:36.627Z,99.90
2019-06-20T02:35:21.867Z,99.90
2019-06-20T02:38:07.034Z,99.90
2019-06-20T02:40:51.763Z,99.90
2019-06-20T02:43:37.504Z,99.90
2019-06-20T02:46:22.801Z,99.90
2019-06-20T02:49:07.412Z,99.90
2019-06-20T02:51:52.562Z,99.90
2019-06-20T02:54:37.830Z,99.90
2019-06-20T02:57:22.495Z,99.90
2019-06-20T03:00:08.308Z,99.90
2019-06-20T03:02:54.489Z,99.90
2019-06-20T03:05:39.441Z,99.90
2019-06-20T03:08:25.708Z,99.90
2019-06-20T03:11:10.940Z,99.90
2019-06-20T03:13:55.538Z,99.90
2019-06-20T03:16:41.789Z,99.90
2019-06-20T03:19:26.519Z,99.90
2019-06-20T03:22:11.331Z,99.90
2019-06-20T03:24:56.749Z,99.90
2019-06-20T03:27:43.327Z,99.90
2019-06-20T03:30:28.468Z,99.90
2019-06-20T03:33:13.480Z,99.90
2019-06-20T03:35:58.375Z,99.90
2019-06-20T03:38:43.548Z,99.90
2019-06-20T03:41:28.470Z,99.90
2019-06-20T03:44:13.354Z,99.90
2019-06-20T03:46:58.202Z,99.90
2019-06-20T03:49:42.954Z,99.90
2019-06-20T03:52:27.894Z,99.90
2019-06-20T03:55:13.176Z,99.90
2019-06-20T03:57:59.493Z,99.90
2019-06-20T04:00:44.385Z,99.90
2019-06-20T04:03:29.255Z,99.90
2019-06-20T04:06:14.005Z,99.90
2019-06-20T04:08:59.127Z,99.90
2019-06-20T04:11:43.798Z,99.90
2019-06-20T04:14:28.412Z,99.90
2019-06-20T04:17:13.582Z,99.90
2019-06-20T04:19:58.682Z,99.90
2019-06-20T04:22:43.698Z,99.90
2019-06-20T04:25:28.490Z,99.90
2019-06-20T04:28:13.552Z,99.90
2019-06-20T04:30:58.227Z,99.90
2019-06-20T04:33:43.181Z,99.90
2019-06-20T04:36:28.055Z,99.90
2019-06-20T04:39:19.116Z,99.90
2019-06-20T04:41:59.963Z,99.90
2019-06-20T04:44:44.503Z,99.90
2019-06-20T04:47:29.453Z,99.90
2019-06-20T04:50:14.318Z,99.90
2019-06-20T04:52:59.198Z,99.90
2019-06-20T04:55:44.143Z,99.90
2019-06-20T04:58:28.740Z,99.90
2019-06-20T05:01:13.984Z,99.90
2019-06-20T05:03:58.897Z,99.90
2019-06-20T05:06:47.462Z,99.90
2019-06-20T05:09:32.339Z,99.90
2019-06-20T05:12:17.052Z,99.90
2019-06-20T05:15:03.395Z,99.90
2019-06-20T05:17:48.281Z,99.90
2019-06-20T05:20:33.491Z,99.90
2019-06-20T05:23:18.737Z,99.90
2019-06-20T05:26:03.753Z,99.90
2019-06-20T05:28:48.696Z,99.90
2019-06-20T05:31:33.557Z,99.90
2019-06-20T05:34:18.326Z,99.90
2019-06-20T05:37:03.027Z,99.90
2019-06-20T05:39:47.642Z,99.90
2019-06-20T05:42:32.889Z,99.90
2019-06-20T05:45:18.264Z,99.90
2019-06-20T05:48:03.997Z,99.90
2019-06-20T05:50:48.855Z,99.90
2019-06-20T05:53:33.509Z,99.90
2019-06-20T05:56:18.424Z,99.90
2019-06-20T05:59:03.381Z,99.90
2019-06-20T06:01:48.498Z,99.90
2019-06-20T06:04:33.554Z,99.90
2019-06-20T06:07:19.079Z,99.90
2019-06-20T06:10:05.985Z,99.90
2019-06-20T06:12:51.140Z,99.90
2019-06-20T06:15:36.192Z,99.90
2019-06-20T06:18:21.057Z,99.90
2019-06-20T06:21:06.146Z,99.90
2019-06-20T06:23:51.618Z,99.90
2019-06-20T06:26:36.638Z,99.90
2019-06-20T06:29:21.439Z,99.90
2019-06-20T06:32:06.353Z,99.90
2019-06-20T06:34:51.171Z,99.90
2019-06-20T06:37:35.953Z,99.90
2019-06-20T06:40:21.690Z,99.90
2019-06-20T06:43:06.378Z,99.90
2019-06-20T06:45:51.447Z,99.90
2019-06-20T06:48:36.583Z,99.90
2019-06-20T06:51:21.884Z,99.90
2019-06-20T06:54:06.987Z,99.90
2019-06-20T06:56:51.777Z,99.90
2019-06-20T06:59:36.653Z,99.90
2019-06-20T07:02:22.116Z,99.90
2019-06-20T07:05:07.998Z,99.90
2019-06-20T07:07:53.706Z,99.90
2019-06-20T07:10:39.168Z,99.90
2019-06-20T07:13:24.377Z,99.90
2019-06-20T07:16:10.789Z,99.90
2019-06-20T07:18:55.505Z,99.90
2019-06-20T07:21:41.081Z,99.90
2019-06-20T07:24:25.814Z,99.90
2019-06-20T07:27:10.539Z,99.90
2019-06-20T07:29:55.230Z,99.90
2019-06-20T07:32:40.094Z,99.90
2019-06-20T07:35:25.297Z,99.90
2019-06-20T07:38:10.048Z,99.90
2019-06-20T07:40:54.949Z,99.90
2019-06-20T07:43:39.762Z,99.90
2019-06-20T07:46:26.217Z,99.90
2019-06-20T07:49:11.391Z,99.90
2019-06-20T07:51:56.108Z,99.90
2019-06-20T07:54:41.094Z,99.90
2019-06-20T07:57:26.846Z,99.90
2019-06-20T08:00:12.796Z,99.90
2019-06-20T08:02:58.072Z,99.90
2019-06-20T08:05:42.796Z,99.90
2019-06-20T08:08:27.567Z,99.90
2019-06-20T08:11:13.089Z,99.90
2019-06-20T08:13:57.624Z,99.90
2019-06-20T08:16:42.572Z,99.90
2019-06-20T08:19:28.057Z,99.90
2019-06-20T08:22:13.357Z,99.90
2019-06-20T08:24:59.408Z,99.90
2019-06-20T08:27:51.830Z,99.90
2019-06-20T08:30:37.722Z,99.90
2019-06-20T08:33:23.025Z,99.90
2019-06-20T08:36:11.046Z,99.90
2019-06-20T08:38:57.438Z,99.90
2019-06-20T08:41:42.841Z,99.90
2019-06-20T08:44:28.218Z,99.90
2019-06-20T08:47:13.240Z,99.90
2019-06-20T08:49:58.434Z,99.90
2019-06-20T08:52:44.976Z,99.90
2019-06-20T08:55:30.584Z,99.90
2019-06-20T08:58:15.986Z,99.90
2019-06-20T09:03:47.693Z,99.90
2019-06-20T09:06:32.990Z,99.90
2019-06-20T09:09:17.748Z,99.90
2019-06-20T09:12:04.989Z,99.90
2019-06-20T09:14:50.160Z,99.90
2019-06-20T09:17:35.208Z,99.90
2019-06-20T09:20:20.431Z,99.90
2019-06-20T09:23:05.729Z,99.90
2019-06-20T09:25:50.946Z,99.90
2019-06-20T09:28:37.548Z,99.90
2019-06-20T09:31:23.728Z,99.90
2019-06-20T09:34:08.529Z,99.90
2019-06-20T09:36:53.677Z,99.60
2019-06-20T09:39:39.890Z,99.90
2019-06-20T09:42:24.721Z,99.90
2019-06-20T09:45:11.620Z,99.90
2019-06-20T09:47:56.572Z,99.90
2019-06-20T09:50:41.962Z,99.90
2019-06-20T09:53:27.225Z,99.90
2019-06-20T09:56:12.259Z,99.90
2019-06-20T09:58:58.298Z,99.90
2019-06-20T10:01:43.520Z,99.90
2019-06-20T10:04:28.599Z,99.90
2019-06-20T10:07:13.312Z,99.90
2019-06-20T10:09:58.790Z,99.20
2019-06-20T10:12:45.219Z,98.60
2019-06-20T10:15:32.794Z,98.90
2019-06-20T10:18:18.022Z,98.20
2019-06-20T10:21:04.683Z,98.50
2019-06-20T10:23:49.727Z,97.30
2019-06-20T10:26:37.786Z,98.20
2019-06-20T10:29:23.249Z,97.30
2019-06-20T10:32:08.191Z,97.20
2019-06-20T10:34:53.297Z,97.50
2019-06-20T10:37:38.283Z,97.20
2019-06-20T10:40:23.391Z,97.60
2019-06-20T10:43:08.439Z,97.20
2019-06-20T10:45:53.183Z,96.80
2019-06-20T10:48:38.408Z,97.00
2019-06-20T10:51:34.095Z,96.80
2019-06-20T10:54:18.928Z,96.40
2019-06-20T10:57:04.000Z,96.40
2019-06-20T10:59:50.862Z,96.70
2019-06-20T11:02:35.923Z,96.60
2019-06-20T11:05:21.252Z,97.10
2019-06-20T11:08:06.399Z,97.50
2019-06-20T11:10:51.829Z,98.10
2019-06-20T11:13:38.984Z,97.80
2019-06-20T11:16:23.799Z,97.90
2019-06-20T11:19:09.227Z,97.30
2019-06-20T11:21:54.594Z,97.50
2019-06-20T11:24:40.937Z,97.90
2019-06-20T11:27:26.203Z,98.10
2019-06-20T11:30:26.177Z,98.60
2019-06-20T11:33:11.210Z,99.20
2019-06-20T11:35:55.988Z,98.60
2019-06-20T11:38:42.472Z,98.70
2019-06-20T11:41:27.600Z,98.20
2019-06-20T11:44:12.751Z,98.70
2019-06-20T11:46:57.703Z,98.70
2019-06-20T11:49:43.097Z,98.30
2019-06-20T11:52:28.738Z,97.60
2019-06-20T11:55:14.210Z,96.40
2019-06-20T11:57:59.372Z,95.90
2019-06-20T12:00:44.207Z,95.90
2019-06-20T12:03:29.353Z,94.10
2019-06-20T12:06:14.622Z,94.10
2019-06-20T12:08:59.397Z,93.20
2019-06-20T12:11:46.662Z,92.80
2019-06-20T12:14:32.064Z,93.50
2019-06-20T12:17:17.336Z,95.10
2019-06-20T12:20:04.456Z,94.20
2019-06-20T12:22:50.811Z,92.80
2019-06-20T12:25:39.078Z,93.40
2019-06-20T12:28:23.202Z,93.50
2019-06-20T12:31:18.980Z,92.70
2019-06-20T12:33:55.510Z,93.70
2019-06-20T12:36:40.957Z,92.90
2019-06-20T12:39:26.980Z,92.90
2019-06-20T12:42:13.176Z,89.70
2019-06-20T12:44:58.521Z,86.30
2019-06-20T12:47:43.972Z,85.30
2019-06-20T12:50:29.240Z,83.10
2019-06-20T12:53:14.256Z,84.30
2019-06-20T12:55:59.732Z,81.40
2019-06-20T12:58:46.578Z,80.60
2019-06-20T13:01:38.937Z,75.80
2019-06-20T13:04:18.563Z,69.30
2019-06-20T13:07:03.523Z,63.50
2019-06-20T13:09:49.029Z,63.60
2019-06-20T13:12:34.366Z,63.60
2019-06-20T13:15:19.726Z,63.50
2019-06-20T13:18:04.937Z,64.60
2019-06-20T13:20:49.944Z,66.20
2019-06-20T13:23:35.380Z,66.30
2019-06-20T13:26:20.317Z,64.20
2019-06-20T13:29:05.627Z,61.20
2019-06-20T13:32:02.071Z,59.20
2019-06-20T13:34:39.408Z,62.10
2019-06-20T13:37:24.795Z,61.60
2019-06-20T13:40:10.676Z,61.80
2019-06-20T13:42:55.952Z,64.40
2019-06-20T13:45:42.288Z,63.90
2019-06-20T13:48:27.416Z,63.60
2019-06-20T13:51:12.896Z,64.20
2019-06-20T13:53:57.984Z,64.30
2019-06-20T13:56:43.706Z,63.00
2019-06-20T13:59:30.106Z,61.40
2019-06-20T14:02:15.022Z,62.10
2019-06-20T14:05:00.586Z,60.50
2019-06-20T14:07:51.927Z,62.70
2019-06-20T14:10:35.517Z,62.00
2019-06-20T14:13:21.186Z,59.50
2019-06-20T14:16:06.733Z,60.10
2019-06-20T14:18:51.917Z,58.80
2019-06-20T14:21:37.389Z,59.70
2019-06-20T14:24:22.796Z,59.90
2019-06-20T14:27:08.148Z,60.60
2019-06-20T14:29:53.628Z,57.90
2019-06-20T14:32:39.096Z,56.50
2019-06-20T14:35:24.557Z,57.10
2019-06-20T14:38:09.928Z,59.40
2019-06-20T14:40:55.461Z,58.90
2019-06-20T14:43:40.280Z,60.30
2019-06-20T14:46:27.328Z,61.80
2019-06-20T14:49:12.521Z,60.30
2019-06-20T14:51:57.672Z,61.10
2019-06-20T14:54:44.146Z,62.70
2019-06-20T14:57:30.195Z,63.80
2019-06-20T15:00:16.228Z,66.00
2019-06-20T15:03:01.222Z,63.70
2019-06-20T15:05:47.094Z,63.20
2019-06-20T15:08:33.543Z,63.20
2019-06-20T15:11:18.578Z,62.70
2019-06-20T15:14:03.957Z,63.50
2019-06-20T15:16:49.510Z,62.40
2019-06-20T15:19:34.709Z,62.50
2019-06-20T15:22:20.040Z,62.70
2019-06-20T15:25:06.125Z,65.00
2019-06-20T15:27:53.220Z,63.10
2019-06-20T15:30:37.947Z,63.60
2019-06-20T15:33:23.318Z,64.30
2019-06-20T15:36:09.035Z,64.10
2019-06-20T15:38:55.096Z,63.90
2019-06-20T15:41:40.703Z,63.60
2019-06-20T15:44:25.517Z,65.40
2019-06-20T15:47:10.963Z,65.90
2019-06-20T15:49:56.580Z,67.00
2019-06-20T15:52:41.997Z,67.90
2019-06-20T15:55:27.260Z,67.50
2019-06-20T15:58:12.220Z,68.30
2019-06-20T16:00:57.631Z,68.20
2019-06-20T16:03:42.589Z,68.70
2019-06-20T16:06:27.910Z,69.60
2019-06-20T16:09:12.957Z,70.40
2019-06-20T16:11:58.526Z,71.00
2019-06-20T16:14:43.853Z,71.70
2019-06-20T16:17:29.063Z,71.90
2019-06-20T16:20:14.939Z,73.10
2019-06-20T16:23:00.004Z,73.60
2019-06-20T16:25:44.668Z,74.60
2019-06-20T16:28:29.848Z,76.60
2019-06-20T16:31:26.297Z,78.00
2019-06-20T16:34:02.151Z,79.50
2019-06-20T16:36:47.206Z,81.20
2019-06-20T16:39:32.449Z,81.60
2019-06-20T16:42:19.485Z,84.50
2019-06-20T16:45:06.957Z,86.70
2019-06-20T16:47:51.796Z,84.70
2019-06-20T16:50:36.945Z,85.60
2019-06-20T16:53:21.834Z,86.20
2019-06-20T16:56:07.296Z,87.00
2019-06-20T16:58:51.975Z,88.10
2019-06-20T17:01:37.115Z,87.10
2019-06-20T17:04:22.114Z,87.80
2019-06-20T17:07:07.285Z,89.00
2019-06-20T17:09:52.219Z,89.20
2019-06-20T17:12:59.055Z,89.00
2019-06-20T17:15:44.618Z,88.80
2019-06-20T17:18:30.075Z,89.80
2019-06-20T17:21:14.960Z,89.30
2019-06-20T17:24:00.289Z,90.00
2019-06-20T17:26:45.103Z,90.10
2019-06-20T17:29:30.841Z,90.00
2019-06-20T17:32:15.895Z,90.30
2019-06-20T17:35:01.449Z,90.00
2019-06-20T17:37:46.817Z,90.00
2019-06-20T17:40:32.296Z,90.20
2019-06-20T17:43:17.256Z,90.40
2019-06-20T17:46:03.830Z,90.70
2019-06-20T17:48:48.860Z,91.10
2019-06-20T17:51:33.764Z,91.50
2019-06-20T17:54:18.713Z,91.60
2019-06-20T17:57:04.054Z,91.90
2019-06-20T17:59:48.818Z,92.10
2019-06-20T18:02:33.798Z,92.50
2019-06-20T18:05:18.768Z,92.80
2019-06-20T18:08:14.496Z,93.00
2019-06-20T18:10:51.778Z,92.70
2019-06-20T18:13:36.708Z,92.70
2019-06-20T18:16:25.418Z,93.30
2019-06-20T18:19:10.107Z,93.30
2019-06-20T18:21:55.362Z,93.00
2019-06-20T18:24:40.261Z,93.30
2019-06-20T18:27:25.240Z,93.60
2019-06-20T18:30:12.275Z,93.80
2019-06-20T18:32:57.693Z,94.20
2019-06-20T18:35:42.830Z,95.10
2019-06-20T18:38:28.341Z,95.70
2019-06-20T18:41:13.771Z,96.70
2019-06-20T18:44:18.818Z,97.40
2019-06-20T18:47:04.497Z,98.20
2019-06-20T18:49:49.260Z,99.70
2019-06-20T18:52:50.543Z,99.90
2019-06-20T18:55:22.176Z,99.90
2019-06-20T18:58:07.555Z,99.90
2019-06-20T19:00:52.543Z,99.90
2019-06-20T19:03:38.005Z,99.90
2019-06-20T19:06:35.586Z,99.90
2019-06-20T19:09:10.155Z,99.90
2019-06-20T19:11:55.061Z,99.90
2019-06-20T19:14:40.412Z,99.90
2019-06-20T19:17:25.910Z,99.90
2019-06-20T19:20:11.650Z,99.90
2019-06-20T19:22:56.918Z,99.90
2019-06-20T19:25:41.907Z,99.90
2019-06-20T19:28:27.428Z,99.90
2019-06-20T19:31:12.259Z,99.90
2019-06-20T19:33:57.585Z,99.90
2019-06-20T19:36:42.294Z,99.90
2019-06-20T19:39:27.274Z,99.90
2019-06-20T19:42:12.777Z,99.90
2019-06-20T19:44:58.035Z,99.90
2019-06-20T19:47:44.218Z,99.90
2019-06-20T19:50:29.457Z,99.90
2019-06-20T19:53:15.092Z,99.90
2019-06-20T19:56:00.686Z,99.90
2019-06-20T19:58:45.769Z,99.90
2019-06-20T20:01:30.931Z,99.90
2019-06-20T20:04:16.316Z,99.90
2019-06-20T20:07:02.359Z,99.90
2019-06-20T20:09:47.603Z,99.90
2019-06-20T20:12:32.547Z,99.90
2019-06-20T20:15:19.685Z,99.90
2019-06-20T20:18:04.610Z,99.90
2019-06-20T20:20:51.590Z,99.90
2019-06-20T20:23:36.811Z,99.90
2019-06-20T20:26:21.929Z,99.90
2019-06-20T20:29:09.115Z,99.90
2019-06-20T20:31:54.347Z,99.90
2019-06-20T20:34:39.390Z,99.90
2019-06-20T20:37:25.839Z,99.90
2019-06-20T20:40:11.624Z,99.90
2019-06-20T20:42:57.149Z,99.90
2019-06-20T20:45:42.888Z,99.90
2019-06-20T20:48:27.681Z,99.90
2019-06-20T20:51:12.700Z,99.90
2019-06-20T20:53:59.039Z,99.90
2019-06-20T20:56:44.133Z,99.90
2019-06-20T20:59:28.989Z,99.90
2019-06-20T21:02:14.401Z,99.90
2019-06-20T21:04:58.974Z,99.90
2019-06-20T21:07:44.105Z,99.90
2019-06-20T21:10:29.280Z,99.90
2019-06-20T21:13:14.213Z,99.90
2019-06-20T21:15:59.819Z,99.90
2019-06-20T21:18:46.622Z,99.90
2019-06-20T21:21:31.692Z,99.90
2019-06-20T21:24:16.842Z,99.90
2019-06-20T21:27:01.636Z,99.90
2019-06-20T21:29:46.410Z,99.90
2019-06-20T21:32:31.536Z,99.90
2019-06-20T21:35:16.944Z,99.90
2019-06-20T21:38:02.018Z,99.90
2019-06-20T21:40:47.473Z,99.90
2019-06-20T21:43:32.330Z,99.90
2019-06-20T21:46:18.435Z,99.90
2019-06-20T21:49:03.763Z,99.90
2019-06-20T21:51:48.970Z,99.90
2019-06-20T21:54:34.237Z,99.90
2019-06-20T21:57:19.255Z,99.90
2019-06-20T22:00:24.967Z,99.90
2019-06-20T22:03:10.151Z,99.90
2019-06-20T22:05:54.933Z,99.90
2019-06-20T22:08:40.009Z,99.90
2019-06-20T22:11:25.127Z,99.90
2019-06-20T22:14:09.918Z,99.90
2019-06-20T22:16:54.731Z,99.90
2019-06-20T22:19:39.687Z,99.90
2019-06-20T22:22:25.186Z,99.90
2019-06-20T22:25:10.728Z,99.90
2019-06-20T22:27:55.885Z,99.90
2019-06-20T22:30:54.678Z,99.90
2019-06-20T22:33:39.973Z,99.90
2019-06-20T22:36:39.126Z,99.90
2019-06-20T22:39:11.613Z,99.90
2019-06-20T22:41:56.528Z,99.90
2019-06-20T22:44:41.721Z,99.90
2019-06-20T22:47:26.741Z,99.90
2019-06-20T22:50:11.763Z,99.90
2019-06-20T22:52:56.757Z,99.90
2019-06-20T22:55:42.413Z,99.90
2019-06-20T22:58:27.506Z,99.90
2019-06-20T23:01:12.756Z,99.90
2019-06-20T23:03:58.163Z,99.90
2019-06-20T23:06:55.905Z,99.90
2019-06-20T23:09:29.858Z,99.90
2019-06-20T23:12:14.478Z,99.90
2019-06-20T23:14:59.533Z,99.90
2019-06-20T23:17:45.365Z,99.90
2019-06-20T23:20:30.509Z,99.90
2019-06-20T23:23:15.530Z,99.90
2019-06-20T23:26:02.187Z,99.90
2019-06-20T23:28:48.998Z,99.90
2019-06-20T23:31:33.890Z,99.90
2019-06-20T23:34:18.732Z,99.90
2019-06-20T23:37:12.643Z,99.90
2019-06-20T23:39:50.474Z,99.90
2019-06-20T23:42:37.511Z,99.90
2019-06-20T23:45:22.332Z,99.90
2019-06-20T23:48:07.962Z,99.90
2019-06-20T23:50:52.929Z,99.90
2019-06-20T23:53:37.512Z,99.90
2019-06-20T23:56:22.448Z,99.90
2019-06-20T23:59:07.082Z,99.90
